createdAt,value
2023-02-23T00:02:20.451Z,5.33
2023-02-23T00:04:48.605Z,5.53
2023-02-23T00:07:19.924Z,6.50
2023-02-23T00:09:48.181Z,6.10
2023-02-23T00:12:17.207Z,6.37
2023-02-23T00:14:45.657Z,5.70
2023-02-23T00:17:17.620Z,5.27
2023-02-23T00:19:49.274Z,5.63
2023-02-23T00:22:17.504Z,5.93
2023-02-23T00:24:47.786Z,5.67
2023-02-23T00:27:20.018Z,5.40
2023-02-23T00:29:49.647Z,5.33
2023-02-23T00:32:20.750Z,5.43
2023-02-23T00:34:50.457Z,5.00
2023-02-23T00:37:19.339Z,5.17
2023-02-23T00:39:47.452Z,4.87
2023-02-23T00:42:15.993Z,5.80
2023-02-23T00:44:44.248Z,5.57
2023-02-23T00:47:12.382Z,5.57
2023-02-23T00:49:44.930Z,5.70
2023-02-23T00:52:14.743Z,5.60
2023-02-23T00:54:43.330Z,5.43
2023-02-23T00:57:11.471Z,5.00
2023-02-23T00:59:39.689Z,4.97
2023-02-23T01:02:07.959Z,5.40
2023-02-23T01:04:36.193Z,5.07
2023-02-23T01:07:06.622Z,4.67
2023-02-23T01:09:34.908Z,4.30
2023-02-23T01:12:07.313Z,4.67
2023-02-23T01:14:37.590Z,4.53
2023-02-23T01:17:05.893Z,5.53
2023-02-23T01:19:34.872Z,5.00
2023-02-23T01:22:03.374Z,5.53
2023-02-23T01:24:33.004Z,5.07
2023-02-23T01:27:01.160Z,5.80
2023-02-23T01:29:29.343Z,5.37
2023-02-23T01:31:57.564Z,5.20
2023-02-23T01:34:25.753Z,5.40
2023-02-23T01:36:53.899Z,5.57
2023-02-23T01:39:23.177Z,5.30
2023-02-23T01:41:54.253Z,5.20
2023-02-23T01:44:59.545Z,5.10
2023-02-23T01:47:27.829Z,5.30
2023-02-23T01:49:56.027Z,5.63
2023-02-23T01:52:24.212Z,5.60
2023-02-23T01:54:55.905Z,5.80
2023-02-23T01:57:27.074Z,5.57
2023-02-23T01:59:56.058Z,6.17
2023-02-23T02:02:33.352Z,5.10
2023-02-23T02:05:03.963Z,5.10
2023-02-23T02:07:35.209Z,4.73
2023-02-23T02:10:20.898Z,4.57
2023-02-23T02:12:53.545Z,4.90
2023-02-23T02:15:26.079Z,5.30
2023-02-23T02:18:09.209Z,4.93
2023-02-23T02:21:06.104Z,4.70
2023-02-23T02:24:08.191Z,5.00
2023-02-23T02:26:47.498Z,4.67
2023-02-23T02:29:52.726Z,4.87
2023-02-23T02:32:42.688Z,4.93
2023-02-23T02:35:47.888Z,4.67
2023-02-23T02:38:27.206Z,4.90
2023-02-23T02:41:04.121Z,5.33
2023-02-23T02:43:42.962Z,5.40
2023-02-23T02:46:17.502Z,5.27
2023-02-23T02:48:51.612Z,5.20
2023-02-23T02:51:25.464Z,5.57
2023-02-23T02:54:06.849Z,5.87
2023-02-23T02:56:40.381Z,5.13
2023-02-23T02:59:29.127Z,6.37
2023-02-23T03:02:15.193Z,5.47
2023-02-23T03:05:00.829Z,5.53
2023-02-23T03:07:52.793Z,5.30
2023-02-23T03:10:51.519Z,5.47
2023-02-23T03:13:45.306Z,6.17
2023-02-23T03:16:41.353Z,5.83
2023-02-23T03:19:34.447Z,6.23
2023-02-23T03:22:29.703Z,6.47
2023-02-23T03:25:20.168Z,5.97
2023-02-23T03:28:12.907Z,5.73
2023-02-23T03:31:07.658Z,6.03
2023-02-23T03:33:59.840Z,6.17
2023-02-23T03:36:48.990Z,6.17
2023-02-23T03:39:40.164Z,6.67
2023-02-23T03:42:31.363Z,5.80
2023-02-23T03:45:23.233Z,6.47
2023-02-23T03:48:12.212Z,6.77
2023-02-23T03:51:00.775Z,7.43
2023-02-23T03:53:51.207Z,6.90
2023-02-23T03:56:39.573Z,7.40
2023-02-23T03:59:26.631Z,6.40
2023-02-23T04:02:15.346Z,6.57
2023-02-23T04:05:03.041Z,6.50
2023-02-23T04:07:49.534Z,6.60
2023-02-23T04:10:35.604Z,5.60
2023-02-23T04:13:16.469Z,5.93
2023-02-23T04:15:50.949Z,5.60
2023-02-23T04:18:24.917Z,6.20
2023-02-23T04:20:53.355Z,5.90
2023-02-23T04:23:22.874Z,5.97
2023-02-23T04:25:51.292Z,5.80
2023-02-23T04:28:19.554Z,5.13
2023-02-23T04:30:47.757Z,6.10
2023-02-23T04:33:16.256Z,6.00
2023-02-23T04:35:46.136Z,6.30
2023-02-23T04:38:14.291Z,6.53
2023-02-23T04:40:42.414Z,5.63
2023-02-23T04:43:12.945Z,6.20
2023-02-23T04:45:41.221Z,6.60
2023-02-23T04:48:09.631Z,6.33
2023-02-23T04:50:37.766Z,5.77
2023-02-23T04:53:10.277Z,6.50
2023-02-23T04:55:38.724Z,6.30
2023-02-23T04:58:08.140Z,6.40
2023-02-23T05:00:39.401Z,6.93
2023-02-23T05:03:07.674Z,7.37
2023-02-23T05:05:35.825Z,6.93
2023-02-23T05:08:03.984Z,7.97
2023-02-23T05:10:33.578Z,9.30
2023-02-23T05:13:02.237Z,8.20
2023-02-23T05:15:32.056Z,7.57
2023-02-23T05:18:07.493Z,7.23
2023-02-23T05:20:35.629Z,6.03
2023-02-23T05:23:03.945Z,6.53
2023-02-23T05:25:35.787Z,6.17
2023-02-23T05:28:05.431Z,7.20
2023-02-23T05:30:34.298Z,6.93
2023-02-23T05:33:02.497Z,6.60
2023-02-23T05:35:31.787Z,5.90
2023-02-23T05:37:59.892Z,6.67
2023-02-23T05:40:28.086Z,6.47
2023-02-23T05:43:01.488Z,7.17
2023-02-23T05:45:29.633Z,6.40
2023-02-23T05:47:57.965Z,6.27
2023-02-23T05:50:26.981Z,6.87
2023-02-23T05:52:55.144Z,5.77
2023-02-23T05:55:23.277Z,5.97
2023-02-23T05:57:51.845Z,6.17
2023-02-23T06:00:22.224Z,6.47
2023-02-23T06:02:52.468Z,6.53
2023-02-23T06:05:20.683Z,6.97
2023-02-23T06:07:48.904Z,6.50
2023-02-23T06:10:17.216Z,6.67
2023-02-23T06:12:46.708Z,6.77
2023-02-23T06:15:14.853Z,6.30
2023-02-23T06:17:44.336Z,6.97
2023-02-23T06:20:14.777Z,7.53
2023-02-23T06:22:43.371Z,7.23
2023-02-23T06:25:13.482Z,7.20
2023-02-23T06:27:42.328Z,7.07
2023-02-23T06:30:14.402Z,6.97
2023-02-23T06:32:44.017Z,7.07
2023-02-23T06:35:12.259Z,7.17
2023-02-23T06:37:41.374Z,7.47
2023-02-23T06:40:10.847Z,7.40
2023-02-23T06:42:39.007Z,8.37
2023-02-23T06:45:08.039Z,7.77
2023-02-23T06:47:36.347Z,6.93
2023-02-23T06:50:06.871Z,7.03
2023-02-23T06:52:35.042Z,7.53
2023-02-23T06:55:03.265Z,7.70
2023-02-23T06:57:31.418Z,7.93
2023-02-23T07:00:01.795Z,7.47
2023-02-23T07:02:30.130Z,7.60
2023-02-23T07:04:58.699Z,7.53
2023-02-23T07:07:28.429Z,6.07
2023-02-23T07:09:56.824Z,6.73
2023-02-23T07:12:25.143Z,6.20
2023-02-23T07:14:53.541Z,6.10
2023-02-23T07:17:21.832Z,6.70
2023-02-23T07:19:50.119Z,6.87
2023-02-23T07:22:18.424Z,6.93
2023-02-23T07:24:48.326Z,6.40
2023-02-23T07:27:16.541Z,7.00
2023-02-23T07:29:45.029Z,6.67
2023-02-23T07:32:13.396Z,6.63
2023-02-23T07:34:41.720Z,6.50
2023-02-23T07:37:10.151Z,6.67
2023-02-23T07:39:38.449Z,7.03
2023-02-23T07:42:08.214Z,5.77
2023-02-23T07:44:36.628Z,5.67
2023-02-23T07:47:05.010Z,4.87
2023-02-23T07:49:33.465Z,6.03
2023-02-23T07:52:01.718Z,6.10
2023-02-23T07:54:29.952Z,5.17
2023-02-23T07:56:59.600Z,5.90
2023-02-23T07:59:30.961Z,6.23
2023-02-23T08:01:59.919Z,4.90
2023-02-23T08:04:28.157Z,5.73
2023-02-23T08:06:56.343Z,6.13
2023-02-23T08:09:24.520Z,5.83
2023-02-23T08:11:52.795Z,5.97
2023-02-23T08:14:23.632Z,6.87
2023-02-23T08:16:53.296Z,5.67
2023-02-23T08:19:22.851Z,5.37
2023-02-23T08:21:51.121Z,5.37
2023-02-23T08:24:19.392Z,6.27
2023-02-23T08:26:47.530Z,6.30
2023-02-23T08:29:15.688Z,6.20
2023-02-23T08:31:43.903Z,6.13
2023-02-23T08:34:14.872Z,6.33
2023-02-23T08:36:45.718Z,6.53
2023-02-23T08:39:14.505Z,5.90
2023-02-23T08:41:43.215Z,6.17
2023-02-23T08:44:11.355Z,6.77
2023-02-23T08:46:39.487Z,6.63
2023-02-23T08:49:10.717Z,6.77
2023-02-23T08:51:40.860Z,6.77
2023-02-23T08:54:14.264Z,6.20
2023-02-23T08:56:43.039Z,6.17
2023-02-23T08:59:12.265Z,6.43
2023-02-23T09:01:41.036Z,6.03
2023-02-23T09:04:09.363Z,6.27
2023-02-23T09:06:40.961Z,7.63
2023-02-23T09:09:09.124Z,6.47
2023-02-23T09:11:37.477Z,6.50
2023-02-23T09:14:05.625Z,6.30
2023-02-23T09:16:34.030Z,6.83
2023-02-23T09:19:02.779Z,7.17
2023-02-23T09:21:34.323Z,6.70
2023-02-23T09:24:04.050Z,7.30
2023-02-23T09:26:33.363Z,5.87
2023-02-23T09:29:02.931Z,5.77
2023-02-23T09:31:31.159Z,6.67
2023-02-23T09:34:00.371Z,6.77
2023-02-23T09:36:29.553Z,7.10
2023-02-23T09:38:58.512Z,7.03
2023-02-23T09:42:20.689Z,6.23
2023-02-23T09:45:04.453Z,5.67
2023-02-23T09:47:40.610Z,6.70
2023-02-23T09:50:19.042Z,6.60
2023-02-23T09:52:50.342Z,6.77
2023-02-23T09:55:18.915Z,7.10
2023-02-23T09:57:49.221Z,7.27
2023-02-23T10:00:27.804Z,7.17
2023-02-23T10:03:11.728Z,6.63
2023-02-23T10:05:44.992Z,6.53
2023-02-23T10:08:29.836Z,7.00
2023-02-23T10:11:08.741Z,6.93
2023-02-23T10:13:46.460Z,6.83
2023-02-23T10:16:22.985Z,7.40
2023-02-23T10:18:57.407Z,6.70
2023-02-23T10:21:35.261Z,7.73
2023-02-23T10:24:06.730Z,6.87
2023-02-23T10:26:44.095Z,6.90
2023-02-23T10:29:23.596Z,6.80
2023-02-23T10:31:58.584Z,7.83
2023-02-23T10:34:29.086Z,7.03
2023-02-23T10:37:01.684Z,7.63
2023-02-23T10:39:31.875Z,7.80
2023-02-23T10:42:04.044Z,7.07
2023-02-23T10:44:32.605Z,7.80
2023-02-23T10:47:04.320Z,7.37
2023-02-23T10:49:41.439Z,7.30
2023-02-23T10:52:13.613Z,7.40
2023-02-23T10:54:47.741Z,6.77
2023-02-23T10:57:27.864Z,7.30
2023-02-23T11:00:31.088Z,7.43
2023-02-23T11:03:01.838Z,6.97
2023-02-23T11:05:35.735Z,7.67
2023-02-23T11:08:30.423Z,6.93
2023-02-23T11:11:19.099Z,7.97
2023-02-23T11:13:49.251Z,6.93
2023-02-23T11:16:19.704Z,7.20
2023-02-23T11:18:55.430Z,7.40
2023-02-23T11:21:26.875Z,6.43
2023-02-23T11:23:58.553Z,6.13
2023-02-23T11:26:33.988Z,6.33
2023-02-23T11:29:11.089Z,7.80
2023-02-23T11:31:40.880Z,7.90
2023-02-23T11:34:23.762Z,7.20
2023-02-23T11:37:01.666Z,7.03
2023-02-23T11:39:29.819Z,6.87
2023-02-23T11:42:19.214Z,7.30
2023-02-23T11:44:53.178Z,7.70
2023-02-23T11:47:24.016Z,7.77
2023-02-23T11:49:54.487Z,7.83
2023-02-23T11:52:24.899Z,7.00
2023-02-23T11:54:57.300Z,6.80
2023-02-23T11:57:28.937Z,6.13
2023-02-23T11:59:58.246Z,7.40
2023-02-23T12:02:28.127Z,7.30
2023-02-23T12:05:06.423Z,6.30
2023-02-23T12:07:41.962Z,7.17
2023-02-23T12:10:17.529Z,7.27
2023-02-23T12:12:56.994Z,7.10
2023-02-23T12:15:37.316Z,6.23
2023-02-23T12:18:16.132Z,7.00
2023-02-23T12:20:50.880Z,6.67
2023-02-23T12:23:24.647Z,6.37
2023-02-23T12:25:59.664Z,6.17
2023-02-23T12:28:34.993Z,7.37
2023-02-23T12:31:07.788Z,7.10
2023-02-23T12:33:40.288Z,7.00
2023-02-23T12:36:20.458Z,7.23
2023-02-23T12:38:55.602Z,6.90
2023-02-23T12:41:34.901Z,6.73
2023-02-23T12:44:13.370Z,7.23
2023-02-23T12:46:48.934Z,6.77
2023-02-23T12:49:28.298Z,6.97
2023-02-23T12:52:06.778Z,6.50
2023-02-23T12:54:35.315Z,6.30
2023-02-23T12:57:13.962Z,6.37
2023-02-23T13:00:30.474Z,6.40
2023-02-23T13:03:22.222Z,5.93
2023-02-23T13:05:57.767Z,6.13
2023-02-23T13:08:34.645Z,5.20
2023-02-23T13:11:13.539Z,7.20
2023-02-23T13:13:52.137Z,6.30
2023-02-23T13:16:31.787Z,6.00
2023-02-23T13:19:10.731Z,6.53
2023-02-23T13:21:43.061Z,6.17
2023-02-23T13:24:19.689Z,6.33
2023-02-23T13:26:54.823Z,6.43
2023-02-23T13:29:32.896Z,6.20
2023-02-23T13:32:02.555Z,5.23
2023-02-23T13:34:34.629Z,5.60
2023-02-23T13:37:06.749Z,5.70
2023-02-23T13:39:49.203Z,5.17
2023-02-23T13:42:44.311Z,5.47
2023-02-23T13:45:30.180Z,6.23
2023-02-23T13:48:03.863Z,5.87
2023-02-23T13:50:41.958Z,5.80
2023-02-23T13:53:30.072Z,5.23
2023-02-23T13:56:04.397Z,6.23
2023-02-23T13:58:33.835Z,5.83
2023-02-23T14:01:10.651Z,5.17
2023-02-23T14:03:48.204Z,6.23
2023-02-23T14:06:19.454Z,6.60
2023-02-23T14:08:54.410Z,5.37
2023-02-23T14:11:48.910Z,6.07
2023-02-23T14:14:44.910Z,5.63
2023-02-23T14:17:41.754Z,6.03
2023-02-23T14:20:29.508Z,5.73
2023-02-23T14:23:34.402Z,5.90
2023-02-23T14:26:35.039Z,5.77
2023-02-23T14:29:33.043Z,6.10
2023-02-23T14:32:04.865Z,5.30
2023-02-23T14:34:51.588Z,6.20
2023-02-23T14:37:32.488Z,5.40
2023-02-23T14:40:12.651Z,5.10
2023-02-23T14:42:42.381Z,5.37
2023-02-23T14:45:25.761Z,5.67
2023-02-23T14:47:59.925Z,5.90
2023-02-23T14:50:30.849Z,6.47
2023-02-23T14:53:01.347Z,5.90
2023-02-23T14:55:32.638Z,6.97
2023-02-23T14:58:01.481Z,6.73
2023-02-23T15:00:34.066Z,6.87
2023-02-23T15:03:03.654Z,7.00
2023-02-23T15:05:34.150Z,6.63
2023-02-23T15:08:04.672Z,6.53
2023-02-23T15:10:36.586Z,6.70
2023-02-23T15:13:11.661Z,6.40
2023-02-23T15:15:46.206Z,7.63
2023-02-23T15:18:23.214Z,7.87
2023-02-23T15:20:52.015Z,6.97
2023-02-23T15:23:21.700Z,6.90
2023-02-23T15:25:51.301Z,6.43
2023-02-23T15:28:25.322Z,7.07
2023-02-23T15:30:57.557Z,6.47
2023-02-23T15:33:28.371Z,7.37
2023-02-23T15:36:01.487Z,8.07
2023-02-23T15:38:43.972Z,7.73
2023-02-23T15:41:20.347Z,7.77
2023-02-23T15:43:48.885Z,7.53
2023-02-23T15:46:24.595Z,7.80
2023-02-23T15:48:54.859Z,7.23
2023-02-23T15:51:32.232Z,8.00
2023-02-23T15:54:01.637Z,7.93
2023-02-23T15:56:31.807Z,7.60
2023-02-23T15:59:04.852Z,7.40
2023-02-23T16:01:34.938Z,7.30
2023-02-23T16:04:07.889Z,7.83
2023-02-23T16:06:38.127Z,8.27
2023-02-23T16:09:21.815Z,7.70
2023-02-23T16:11:52.903Z,7.60
2023-02-23T16:14:23.576Z,8.67
2023-02-23T16:17:09.859Z,8.00
2023-02-23T16:19:41.597Z,9.10
2023-02-23T16:22:19.654Z,9.23
2023-02-23T16:24:54.612Z,9.70
2023-02-23T16:27:24.529Z,9.93
2023-02-23T16:30:00.204Z,9.97
2023-02-23T16:32:37.502Z,9.50
2023-02-23T16:35:17.042Z,9.43
2023-02-23T16:38:03.137Z,9.50
2023-02-23T16:40:31.685Z,9.93
2023-02-23T16:43:00.070Z,9.90
2023-02-23T16:45:29.766Z,10.17
2023-02-23T16:48:03.200Z,10.13
2023-02-23T16:50:33.712Z,10.07
2023-02-23T16:53:03.516Z,8.70
2023-02-23T16:55:37.322Z,9.40
2023-02-23T16:58:08.556Z,10.20
2023-02-23T17:00:36.736Z,9.73
2023-02-23T17:03:06.737Z,10.50
2023-02-23T17:05:35.016Z,10.63
2023-02-23T17:08:03.192Z,11.13
2023-02-23T17:10:33.455Z,10.93
2023-02-23T17:13:05.029Z,12.23
2023-02-23T17:15:36.824Z,12.90
2023-02-23T17:18:06.968Z,12.53
2023-02-23T17:20:35.468Z,13.00
2023-02-23T17:23:04.754Z,12.67
2023-02-23T17:25:33.145Z,13.30
2023-02-23T17:28:01.770Z,13.07
2023-02-23T17:30:30.958Z,13.80
2023-02-23T17:33:00.684Z,14.00
2023-02-23T17:35:33.620Z,11.83
2023-02-23T17:38:02.201Z,13.10
2023-02-23T17:40:31.222Z,12.50
2023-02-23T17:43:01.231Z,12.30
2023-02-23T17:45:30.461Z,12.53
2023-02-23T17:47:59.565Z,12.20
2023-02-23T17:50:29.418Z,10.93
2023-02-23T17:52:57.887Z,11.37
2023-02-23T17:55:26.384Z,12.00
2023-02-23T17:57:54.700Z,10.90
2023-02-23T18:00:25.924Z,11.40
2023-02-23T18:02:54.131Z,10.60
2023-02-23T18:05:22.493Z,10.50
2023-02-23T18:07:52.176Z,11.70
2023-02-23T18:10:25.516Z,11.23
2023-02-23T18:12:54.037Z,10.60
2023-02-23T18:15:22.872Z,10.67
2023-02-23T18:17:54.505Z,11.20
2023-02-23T18:20:23.091Z,10.87
2023-02-23T18:22:52.811Z,11.57
2023-02-23T18:25:22.682Z,11.83
2023-02-23T18:27:54.250Z,11.93
2023-02-23T18:30:24.662Z,12.17
2023-02-23T18:32:56.333Z,11.50
2023-02-23T18:35:24.776Z,11.87
2023-02-23T18:37:54.593Z,12.97
2023-02-23T18:40:23.938Z,12.10
2023-02-23T18:42:52.441Z,12.33
2023-02-23T18:45:20.728Z,12.00
2023-02-23T18:47:49.177Z,11.60
2023-02-23T18:50:19.443Z,13.57
2023-02-23T18:52:48.400Z,12.37
2023-02-23T18:55:18.613Z,12.90
2023-02-23T18:57:49.867Z,12.90
2023-02-23T19:00:20.233Z,13.13
2023-02-23T19:02:48.753Z,14.13
2023-02-23T19:05:20.862Z,13.63
2023-02-23T19:07:50.130Z,14.50
2023-02-23T19:10:20.023Z,13.93
2023-02-23T19:12:48.121Z,13.30
2023-02-23T19:15:16.588Z,13.93
2023-02-23T19:17:46.437Z,13.67
2023-02-23T19:20:18.918Z,13.53
2023-02-23T19:22:47.742Z,13.97
2023-02-23T19:25:17.445Z,14.30
2023-02-23T19:27:47.002Z,14.60
2023-02-23T19:30:15.616Z,15.27
2023-02-23T19:32:44.975Z,13.17
2023-02-23T19:35:19.414Z,14.97
2023-02-23T19:37:49.207Z,14.80
2023-02-23T19:40:20.909Z,13.67
2023-02-23T19:42:53.107Z,14.23
2023-02-23T19:45:24.837Z,14.67
2023-02-23T19:47:53.824Z,14.47
2023-02-23T19:50:22.494Z,14.63
2023-02-23T19:52:50.737Z,13.47
2023-02-23T19:55:20.531Z,15.20
2023-02-23T19:57:50.282Z,15.10
2023-02-23T20:00:19.189Z,14.60
2023-02-23T20:02:54.666Z,14.03
2023-02-23T20:05:25.946Z,15.67
2023-02-23T20:07:57.756Z,15.20
2023-02-23T20:10:29.467Z,15.73
2023-02-23T20:12:59.073Z,15.70
2023-02-23T20:15:27.279Z,15.53
2023-02-23T20:17:55.726Z,15.63
2023-02-23T20:20:25.856Z,17.50
2023-02-23T20:22:56.467Z,16.17
2023-02-23T20:25:29.470Z,15.83
2023-02-23T20:27:59.745Z,16.50
2023-02-23T20:30:28.907Z,17.60
2023-02-23T20:32:59.164Z,17.40
2023-02-23T20:35:27.906Z,17.27
2023-02-23T20:37:56.238Z,17.37
2023-02-23T20:40:28.478Z,16.37
2023-02-23T20:42:58.041Z,18.23
2023-02-23T20:45:27.207Z,17.13
2023-02-23T20:47:57.377Z,17.03
2023-02-23T20:50:28.768Z,18.43
2023-02-23T20:52:59.437Z,17.17
2023-02-23T20:55:29.466Z,17.87
2023-02-23T20:58:00.181Z,17.90
2023-02-23T21:00:31.157Z,17.90
2023-02-23T21:03:01.290Z,17.83
2023-02-23T21:05:43.713Z,17.10
2023-02-23T21:08:12.843Z,17.57
2023-02-23T21:10:41.932Z,18.37
2023-02-23T21:13:12.037Z,19.37
2023-02-23T21:15:41.745Z,19.77
2023-02-23T21:18:11.869Z,18.27
2023-02-23T21:20:40.776Z,18.07
2023-02-23T21:23:09.120Z,18.80
2023-02-23T21:25:38.062Z,18.30
2023-02-23T21:28:10.144Z,17.27
2023-02-23T21:30:40.031Z,19.07
2023-02-23T21:33:08.449Z,17.87
2023-02-23T21:35:38.444Z,19.90
2023-02-23T21:38:08.350Z,19.03
2023-02-23T21:40:42.083Z,17.50
2023-02-23T21:43:13.109Z,18.53
2023-02-23T21:45:46.613Z,19.47
2023-02-23T21:48:15.085Z,18.67
2023-02-23T21:50:43.556Z,19.53
2023-02-23T21:53:14.828Z,19.73
2023-02-23T21:55:43.260Z,19.87
2023-02-23T21:58:12.161Z,18.20
2023-02-23T22:00:40.472Z,20.17
2023-02-23T22:03:10.269Z,19.30
2023-02-23T22:05:38.534Z,18.97
2023-02-23T22:08:06.762Z,20.77
2023-02-23T22:10:34.906Z,20.47
2023-02-23T22:13:03.177Z,19.00
2023-02-23T22:15:31.382Z,20.80
2023-02-23T22:18:00.344Z,20.47
2023-02-23T22:20:30.305Z,20.17
2023-02-23T22:22:58.450Z,19.67
2023-02-23T22:25:26.716Z,20.50
2023-02-23T22:27:54.899Z,20.20
2023-02-23T22:30:23.402Z,22.23
2023-02-23T22:32:51.903Z,22.60
2023-02-23T22:35:20.214Z,20.87
2023-02-23T22:37:49.800Z,21.57
2023-02-23T22:40:18.516Z,22.37
2023-02-23T22:42:49.099Z,21.20
2023-02-23T22:45:17.763Z,21.57
2023-02-23T22:47:45.973Z,20.27
2023-02-23T22:50:18.097Z,19.90
2023-02-23T22:52:46.837Z,20.67
2023-02-23T22:55:16.521Z,21.53
2023-02-23T22:57:46.060Z,22.27
2023-02-23T23:00:17.335Z,21.60
2023-02-23T23:02:45.859Z,21.97
2023-02-23T23:05:14.635Z,21.27
2023-02-23T23:07:46.442Z,21.70
2023-02-23T23:10:17.633Z,21.50
2023-02-23T23:12:46.460Z,21.43
2023-02-23T23:15:17.331Z,22.20
2023-02-23T23:17:48.509Z,20.43
2023-02-23T23:20:19.307Z,20.97
2023-02-23T23:22:49.046Z,21.33
2023-02-23T23:25:23.007Z,21.03
2023-02-23T23:27:53.413Z,21.13
2023-02-23T23:30:25.944Z,21.67
2023-02-23T23:32:54.570Z,22.43
2023-02-23T23:35:23.024Z,21.77
2023-02-23T23:37:52.063Z,22.07
2023-02-23T23:40:24.503Z,21.93
2023-02-23T23:42:53.220Z,22.10
2023-02-23T23:45:24.310Z,21.53
2023-02-23T23:47:52.699Z,23.83
2023-02-23T23:50:26.670Z,26.73
2023-02-23T23:52:55.468Z,28.33
2023-02-23T23:55:25.023Z,25.50
2023-02-23T23:57:53.267Z,24.23
